Time;durP1;ratioP1;P1;durP2;ratioP2;P2;SDS_P1;SDS_P2;PMS_P1;PMS_P2;Temp;Humidity;BMP_temperature;BMP_pressure;BME280_temperature;BME280_humidity;BME280_pressure;Samples;Min_cycle;Max_cycle;Signal;HPM_P1;HPM_P2
2023/06/22 00:01:09;;;;;;;11.63;10.60;;;22.40;99.90;;;;;;5075405;28;20731;-49
2023/06/22 00:03:35;;;;;;;13.77;10.93;;;22.40;99.90;;;;;;5074712;28;20196;-51
2023/06/22 00:06:00;;;;;;;11.00;9.80;;;22.40;99.90;;;;;;5075373;28;20173;-50
2023/06/22 00:08:26;;;;;;;11.93;10.83;;;22.50;99.90;;;;;;5074502;28;20439;-50
2023/06/22 00:10:51;;;;;;;11.07;10.10;;;22.40;99.90;;;;;;5074307;28;20181;-48
2023/06/22 00:13:17;;;;;;;10.70;9.60;;;22.40;99.90;;;;;;5075654;28;20263;-51
2023/06/22 00:15:44;;;;;;;11.40;10.40;;;22.50;99.90;;;;;;5074261;28;20192;-48
2023/06/22 00:18:10;;;;;;;10.83;9.83;;;22.40;99.90;;;;;;5074798;28;20426;-47
2023/06/22 00:20:38;;;;;;;11.30;10.27;;;22.30;99.90;;;;;;5075123;28;20541;-47
2023/06/22 00:23:08;;;;;;;12.37;11.27;;;22.20;1.00;;;;;;5074935;28;20523;-50
2023/06/22 00:25:43;;;;;;;13.40;12.20;;;22.20;1.00;;;;;;5075434;28;20477;-49
2023/06/22 00:28:08;;;;;;;11.20;10.10;;;22.10;1.00;;;;;;5075153;28;20817;-47
2023/06/22 00:30:35;;;;;;;10.67;9.77;;;22.00;92.70;;;;;;5074673;28;20427;-49
2023/06/22 00:33:01;;;;;;;12.47;11.27;;;21.90;99.90;;;;;;5075767;28;20165;-52
2023/06/22 00:35:28;;;;;;;12.83;11.10;;;21.90;99.90;;;;;;5075095;28;20548;-48
2023/06/22 00:38:00;;;;;;;12.83;11.63;;;21.80;99.90;;;;;;5074472;28;20481;-48
2023/06/22 00:40:30;;;;;;;12.50;11.20;;;21.80;99.90;;;;;;5075304;28;20540;-48
2023/06/22 00:42:58;;;;;;;13.30;10.70;;;21.80;99.90;;;;;;5075260;28;20438;-50
2023/06/22 00:45:24;;;;;;;11.20;10.20;;;21.90;99.90;;;;;;5075114;28;20620;-49
2023/06/22 00:47:55;;;;;;;12.37;11.17;;;21.90;99.90;;;;;;5075900;28;20476;-49
2023/06/22 00:50:23;;;;;;;12.57;11.40;;;21.80;99.90;;;;;;5075043;28;20530;-49
2023/06/22 00:52:58;;;;;;;12.03;10.87;;;21.80;1.00;;;;;;5074308;28;20455;-49
2023/06/22 00:55:25;;;;;;;13.17;10.97;;;21.70;1.00;;;;;;5074868;28;20549;-48
2023/06/22 00:57:55;;;;;;;12.30;11.30;;;21.70;1.00;;;;;;5074503;28;20876;-49
2023/06/22 01:00:24;;;;;;;13.30;12.00;;;21.70;1.00;;;;;;5073999;28;20489;-49
2023/06/22 01:02:51;;;;;;;16.77;10.80;;;21.50;1.00;;;;;;5072789;28;20418;-48
2023/06/22 01:05:21;;;;;;;17.63;10.97;;;21.50;8.40;;;;;;5056389;28;20462;-49
2023/06/22 01:08:08;;;;;;;11.17;10.17;;;21.50;15.30;;;;;;5073002;28;20473;-49
2023/06/22 01:10:45;;;;;;;11.67;10.57;;;21.50;1.00;;;;;;5073591;28;20723;-50
2023/06/22 01:13:57;;;;;;;11.40;10.40;;;21.50;19.10;;;;;;5072818;28;20427;-48
2023/06/22 01:16:31;;;;;;;11.37;10.37;;;21.60;1.00;;;;;;5025796;28;20467;-50
2023/06/22 01:18:59;;;;;;;12.27;10.93;;;21.50;1.00;;;;;;5072461;28;20869;-49
2023/06/22 01:21:26;;;;;;;11.73;10.47;;;21.50;1.00;;;;;;5073056;28;20729;-49
2023/06/22 01:24:13;;;;;;;11.97;10.97;;;21.50;1.00;;;;;;5056066;28;20419;-48
2023/06/22 01:26:59;;;;;;;12.40;10.70;;;21.50;34.10;;;;;;5073281;28;20443;-49
2023/06/22 01:29:26;;;;;;;11.03;9.97;;;21.50;41.00;;;;;;5074602;28;20427;-49
2023/06/22 01:31:53;;;;;;;10.67;9.67;;;21.50;23.30;;;;;;5054993;28;20439;-48
2023/06/22 01:34:20;;;;;;;10.50;9.70;;;21.40;31.60;;;;;;5071105;28;20441;-49
2023/06/22 01:36:46;;;;;;;10.90;9.90;;;21.30;99.90;;;;;;5074412;28;20804;-48
2023/06/22 01:39:12;;;;;;;11.30;10.37;;;21.40;99.90;;;;;;5074998;28;20476;-48
2023/06/22 01:41:38;;;;;;;10.67;9.67;;;21.30;99.90;;;;;;5059804;28;20411;-48
2023/06/22 01:44:07;;;;;;;11.53;10.43;;;21.30;99.90;;;;;;5076295;28;20813;-49
2023/06/22 01:46:34;;;;;;;12.10;10.90;;;21.30;99.90;;;;;;5058685;28;20556;-49
2023/06/22 01:49:00;;;;;;;13.20;11.90;;;21.30;99.90;;;;;;5076513;28;20856;-49
2023/06/22 01:51:25;;;;;;;12.60;10.50;;;21.30;99.90;;;;;;5076339;28;20432;-50
2023/06/22 01:53:51;;;;;;;11.13;10.03;;;21.30;99.90;;;;;;5076355;28;20707;-50
2023/06/22 01:56:18;;;;;;;10.87;9.87;;;21.30;99.90;;;;;;5076840;28;20287;-50
2023/06/22 01:58:50;;;;;;;11.63;10.43;;;21.30;99.90;;;;;;5076032;28;20236;-47
2023/06/22 02:01:23;;;;;;;11.17;10.07;;;21.30;99.90;;;;;;5058582;28;20504;-47
2023/06/22 02:04:06;;;;;;;13.60;11.40;;;21.30;99.90;;;;;;5075683;28;20477;-49
2023/06/22 02:06:35;;;;;;;12.10;11.07;;;21.20;99.90;;;;;;5076684;28;20522;-49
2023/06/22 02:09:02;;;;;;;9.77;8.87;;;21.20;99.90;;;;;;5059445;28;20411;-49
2023/06/22 02:11:29;;;;;;;12.07;10.37;;;21.20;99.90;;;;;;5077135;28;20821;-50
2023/06/22 02:13:56;;;;;;;13.30;11.07;;;21.20;99.90;;;;;;5077435;28;20708;-50
2023/06/22 02:16:22;;;;;;;10.10;9.20;;;21.20;99.90;;;;;;5058731;28;20511;-47
2023/06/22 02:18:52;;;;;;;10.87;9.73;;;21.30;99.90;;;;;;5077520;28;20539;-52
2023/06/22 02:21:21;;;;;;;10.70;9.70;;;21.30;38.40;;;;;;5077167;28;20427;-47
2023/06/22 02:23:47;;;;;;;11.07;9.50;;;21.20;99.90;;;;;;5076310;28;20410;-49
2023/06/22 02:26:13;;;;;;;9.70;8.80;;;21.20;99.90;;;;;;5076626;28;20487;-48
2023/06/22 02:28:39;;;;;;;11.53;10.43;;;21.20;99.90;;;;;;5077009;28;20185;-48
2023/06/22 02:31:04;;;;;;;11.73;9.40;;;21.20;99.90;;;;;;5075847;28;20506;-50
2023/06/22 02:33:30;;;;;;;11.30;10.37;;;21.20;99.90;;;;;;5076961;28;20989;-48
2023/06/22 02:35:56;;;;;;;10.10;9.10;;;21.20;99.90;;;;;;5076652;28;20196;-51
2023/06/22 02:38:24;;;;;;;10.50;9.40;;;21.20;99.90;;;;;;5075934;28;20189;-49
2023/06/22 02:40:50;;;;;;;10.07;9.07;;;21.10;99.90;;;;;;5076828;28;20272;-49
2023/06/22 02:43:15;;;;;;;12.00;10.80;;;21.10;99.90;;;;;;5077352;28;20477;-49
2023/06/22 02:45:41;;;;;;;10.67;9.67;;;21.20;54.90;;;;;;5075469;28;20181;-50
2023/06/22 02:48:07;;;;;;;10.17;9.27;;;21.20;60.60;;;;;;5076920;28;20203;-49
2023/06/22 02:50:32;;;;;;;10.70;9.80;;;21.10;28.00;;;;;;5076052;28;20251;-49
2023/06/22 02:52:58;;;;;;;11.13;10.03;;;21.10;54.70;;;;;;5075910;28;20521;-49
2023/06/22 02:55:23;;;;;;;9.50;8.60;;;21.10;66.30;;;;;;5074372;28;20218;-49
2023/06/22 02:57:52;;;;;;;10.97;9.17;;;21.10;81.60;;;;;;5074975;28;20189;-49
2023/06/22 03:00:19;;;;;;;12.37;9.17;;;21.00;99.90;;;;;;5074305;28;20213;-49
2023/06/22 03:02:48;;;;;;;12.47;10.17;;;21.00;99.90;;;;;;5075069;28;20817;-47
2023/06/22 03:05:17;;;;;;;13.30;9.07;;;21.00;99.90;;;;;;5073234;28;20507;-51
2023/06/22 03:07:44;;;;;;;10.60;9.60;;;21.00;99.90;;;;;;5073638;28;20534;-47
2023/06/22 03:10:10;;;;;;;10.17;9.10;;;21.00;99.90;;;;;;5072950;28;20439;-49
2023/06/22 03:12:37;;;;;;;11.20;10.10;;;21.00;99.90;;;;;;5055334;28;20468;-48
2023/06/22 03:15:07;;;;;;;9.70;8.70;;;21.00;99.90;;;;;;5074178;28;20447;-50
2023/06/22 03:17:38;;;;;;;10.37;9.40;;;21.00;99.90;;;;;;5074597;28;20434;-49
2023/06/22 03:20:09;;;;;;;10.77;9.77;;;20.90;99.90;;;;;;5075493;28;20483;-48
2023/06/22 03:22:43;;;;;;;9.60;8.70;;;21.00;99.90;;;;;;5076706;28;20424;-49
2023/06/22 03:25:10;;;;;;;10.80;9.17;;;21.00;99.90;;;;;;5075815;28;20868;-49
2023/06/22 03:27:37;;;;;;;10.73;9.73;;;21.00;99.90;;;;;;5076050;28;20499;-49
2023/06/22 03:30:03;;;;;;;10.23;9.23;;;20.90;99.90;;;;;;5075565;28;20418;-48
2023/06/22 03:32:28;;;;;;;10.50;9.27;;;20.80;99.90;;;;;;5081895;28;20442;-49
2023/06/22 03:34:54;;;;;;;10.67;9.67;;;20.90;99.90;;;;;;5096789;28;20537;-41
2023/06/22 03:37:20;;;;;;;12.00;10.67;;;20.80;99.90;;;;;;5097869;28;20353;-42
2023/06/22 03:39:45;;;;;;;14.17;11.43;;;20.80;99.90;;;;;;5078050;28;20226;-43
2023/06/22 03:42:11;;;;;;;13.83;10.70;;;20.70;99.90;;;;;;5095776;28;20207;-42
2023/06/22 03:44:36;;;;;;;12.70;11.50;;;20.60;99.90;;;;;;5096184;28;20172;-42
2023/06/22 03:47:04;;;;;;;11.97;10.97;;;20.40;1.00;;;;;;5095710;28;20195;-41
2023/06/22 03:49:29;;;;;;;11.87;10.87;;;20.30;1.00;;;;;;5077544;28;20417;-43
2023/06/22 03:51:55;;;;;;;12.67;11.57;;;20.20;1.00;;;;;;5095368;28;20458;-41
2023/06/22 03:54:20;;;;;;;14.07;11.53;;;20.10;1.00;;;;;;5094512;28;20263;-42
2023/06/22 03:56:46;;;;;;;11.57;10.50;;;20.00;1.00;;;;;;5095859;28;20245;-41
2023/06/22 03:59:12;;;;;;;10.83;9.93;;;20.00;1.00;;;;;;5095851;28;20227;-42
2023/06/22 04:01:37;;;;;;;12.20;11.10;;;19.90;34.70;;;;;;5095071;28;20181;-42
2023/06/22 04:04:03;;;;;;;12.37;11.23;;;19.80;62.90;;;;;;5096034;28;20193;-43
2023/06/22 04:06:29;;;;;;;12.13;11.00;;;19.80;93.00;;;;;;5095103;28;20188;-41
2023/06/22 04:08:54;;;;;;;12.13;11.03;;;19.80;99.90;;;;;;5094015;28;20639;-42
2023/06/22 04:11:20;;;;;;;11.60;10.60;;;19.80;99.90;;;;;;5095272;28;20522;-42
2023/06/22 04:13:46;;;;;;;12.27;11.07;;;19.80;99.90;;;;;;5096439;28;20193;-42
2023/06/22 04:16:11;;;;;;;11.83;10.63;;;19.80;99.90;;;;;;5077544;28;20535;-41
2023/06/22 04:18:37;;;;;;;12.60;11.50;;;19.80;99.90;;;;;;5059745;28;20216;-41
2023/06/22 04:21:03;;;;;;;11.97;10.77;;;19.80;99.90;;;;;;5093517;28;20169;-42
2023/06/22 04:23:28;;;;;;;12.67;11.57;;;19.90;99.90;;;;;;5094425;28;20463;-41
2023/06/22 04:25:56;;;;;;;14.00;11.90;;;19.90;99.90;;;;;;5093798;28;20180;-41
2023/06/22 04:28:22;;;;;;;12.97;11.73;;;20.00;99.90;;;;;;5092540;28;20263;-42
2023/06/22 04:30:48;;;;;;;13.23;11.93;;;20.00;99.90;;;;;;5094023;28;20458;-41
2023/06/22 04:33:15;;;;;;;12.57;11.27;;;20.00;99.90;;;;;;5093856;28;20696;-43
2023/06/22 04:35:43;;;;;;;11.03;10.13;;;20.00;99.90;;;;;;5091612;28;20391;-43
2023/06/22 04:38:09;;;;;;;11.73;10.63;;;20.10;99.90;;;;;;5092807;28;20422;-41
2023/06/22 04:40:35;;;;;;;11.70;10.60;;;20.20;43.70;;;;;;5093431;28;20836;-42
2023/06/22 04:43:02;;;;;;;11.93;10.83;;;20.20;40.20;;;;;;5094419;28;20183;-42
2023/06/22 04:45:31;;;;;;;13.20;11.93;;;20.30;48.80;;;;;;5091883;28;20184;-44
2023/06/22 04:47:57;;;;;;;12.70;11.37;;;20.40;10.60;;;;;;5075838;28;20430;-42
2023/06/22 04:50:23;;;;;;;10.33;9.37;;;20.40;1.00;;;;;;5095033;28;20411;-45
2023/06/22 04:52:50;;;;;;;11.67;10.67;;;20.50;1.00;;;;;;5095083;28;20197;-41
2023/06/22 04:55:18;;;;;;;11.83;10.70;;;20.60;1.00;;;;;;5094568;28;20189;-48
2023/06/22 04:57:48;;;;;;;11.63;10.50;;;20.70;1.00;;;;;;5094232;28;20461;-41
2023/06/22 05:00:18;;;;;;;12.23;11.07;;;20.80;1.00;;;;;;5090487;28;20841;-40
2023/06/22 05:02:45;;;;;;;11.90;10.70;;;20.90;1.00;;;;;;5091419;28;20474;-42
2023/06/22 05:05:13;;;;;;;11.90;10.80;;;21.00;1.00;;;;;;5073800;28;20464;-40
2023/06/22 05:07:42;;;;;;;11.80;10.50;;;21.00;99.90;;;;;;5087693;28;20545;-41
2023/06/22 05:10:10;;;;;;;12.20;10.90;;;21.20;99.90;;;;;;5072483;28;20410;-41
2023/06/22 05:12:36;;;;;;;10.43;9.30;;;21.30;99.90;;;;;;5073623;28;20488;-42
2023/06/22 05:15:01;;;;;;;10.30;9.30;;;21.40;99.90;;;;;;5059805;28;20843;-43
2023/06/22 05:17:27;;;;;;;10.53;9.53;;;21.50;24.30;;;;;;5094686;28;20271;-42
2023/06/22 05:19:53;;;;;;;12.13;10.67;;;21.60;1.00;;;;;;5075175;28;20316;-40
2023/06/22 05:22:19;;;;;;;11.53;10.33;;;21.70;1.00;;;;;;5095447;28;20426;-42
2023/06/22 05:24:45;;;;;;;8.83;7.93;;;21.80;99.90;;;;;;5096471;28;20419;-42
2023/06/22 05:27:10;;;;;;;12.50;9.50;;;21.90;99.90;;;;;;5059148;28;20597;-45
2023/06/22 05:29:37;;;;;;;9.43;8.53;;;22.10;1.00;;;;;;5092969;28;20189;-43
2023/06/22 05:32:03;;;;;;;10.23;9.23;;;22.20;1.00;;;;;;5092978;28;20676;-43
2023/06/22 05:34:29;;;;;;;9.70;8.80;;;22.30;99.90;;;;;;5093016;28;20734;-42
2023/06/22 05:36:54;;;;;;;10.17;9.17;;;22.40;1.00;;;;;;5075773;28;20588;-42
2023/06/22 05:39:20;;;;;;;9.50;8.53;;;22.50;1.00;;;;;;5092192;28;20449;-42
2023/06/22 05:41:46;;;;;;;10.00;9.00;;;22.50;99.90;;;;;;5093375;28;20279;-40
2023/06/22 05:44:12;;;;;;;9.43;8.63;;;22.60;1.00;;;;;;5090511;28;20184;-41
2023/06/22 05:46:46;;;;;;;9.20;8.30;;;22.60;1.00;;;;;;5092315;28;20582;-40
2023/06/22 05:49:12;;;;;;;9.10;8.17;;;22.70;1.00;;;;;;5089565;28;20484;-41
2023/06/22 05:51:38;;;;;;;7.93;7.23;;;22.70;1.00;;;;;;5071224;28;20792;-43
2023/06/22 05:54:04;;;;;;;9.17;8.27;;;22.70;1.00;;;;;;5069475;28;20442;-42
2023/06/22 05:56:30;;;;;;;9.90;8.67;;;22.70;99.90;;;;;;5085939;28;20932;-42
2023/06/22 05:58:56;;;;;;;8.70;7.90;;;22.70;99.90;;;;;;5072421;28;20467;-44
2023/06/22 06:01:21;;;;;;;9.27;7.97;;;22.70;79.80;;;;;;5053936;28;20594;-41
2023/06/22 06:03:49;;;;;;;9.20;7.97;;;22.60;99.90;;;;;;5071259;28;20261;-41
2023/06/22 06:06:28;;;;;;;11.47;7.77;;;22.60;99.90;;;;;;5073158;28;20221;-42
2023/06/22 06:08:54;;;;;;;8.67;7.77;;;22.60;1.00;;;;;;5073282;28;20426;-42
2023/06/22 06:11:20;;;;;;;9.97;7.93;;;22.80;99.90;;;;;;5092533;28;20439;-43
2023/06/22 06:13:45;;;;;;;13.13;8.73;;;22.90;1.00;;;;;;5092237;28;20434;-42
2023/06/22 06:16:11;;;;;;;10.23;7.60;;;23.10;99.90;;;;;;5089131;28;20580;-41
2023/06/22 06:18:37;;;;;;;7.67;7.00;;;23.20;99.90;;;;;;5070974;28;20429;-40
2023/06/22 06:21:03;;;;;;;8.43;7.47;;;23.20;99.90;;;;;;5071810;28;20192;-42
2023/06/22 06:23:28;;;;;;;9.27;8.37;;;23.50;21.00;;;;;;5092441;28;20550;-41
2023/06/22 06:25:54;;;;;;;10.13;8.43;;;23.60;1.00;;;;;;5092290;28;20185;-41
2023/06/22 06:28:20;;;;;;;7.73;6.67;;;23.90;99.90;;;;;;5092850;28;20562;-45
2023/06/22 06:30:47;;;;;;;12.40;8.10;;;24.10;99.90;;;;;;5073920;28;20658;-42
2023/06/22 06:33:13;;;;;;;10.17;8.63;;;24.20;36.90;;;;;;5090909;28;20180;-44
2023/06/22 06:35:38;;;;;;;9.27;8.27;;;24.50;1.00;;;;;;5073969;28;20857;-43
2023/06/22 06:38:04;;;;;;;8.13;7.43;;;24.60;99.90;;;;;;5093817;28;20435;-42
2023/06/22 06:40:30;;;;;;;8.77;7.27;;;24.70;99.90;;;;;;5094319;28;20212;-41
2023/06/22 06:42:55;;;;;;;9.20;7.87;;;24.90;99.90;;;;;;5092165;28;20566;-42
2023/06/22 06:45:22;;;;;;;11.57;7.60;;;25.10;99.90;;;;;;5090995;28;20585;-43
2023/06/22 06:47:49;;;;;;;8.37;7.13;;;25.30;18.70;;;;;;5092984;28;20691;-45
2023/06/22 06:50:15;;;;;;;8.17;7.37;;;25.60;1.00;;;;;;5091286;28;20437;-42
2023/06/22 06:52:41;;;;;;;7.47;6.70;;;25.80;1.00;;;;;;5072284;28;20595;-42
2023/06/22 06:55:11;;;;;;;8.73;7.80;;;26.00;99.90;;;;;;5072255;28;20505;-43
2023/06/22 06:57:40;;;;;;;9.63;7.23;;;26.30;99.90;;;;;;5088667;28;20442;-43
2023/06/22 07:00:11;;;;;;;7.70;6.93;;;26.30;99.90;;;;;;5072242;28;20558;-41
2023/06/22 07:02:41;;;;;;;10.17;7.40;;;26.40;99.90;;;;;;5091806;28;20426;-42
2023/06/22 07:05:08;;;;;;;9.60;7.73;;;26.60;99.90;;;;;;5073397;28;20548;-40
2023/06/22 07:07:36;;;;;;;7.47;6.80;;;26.80;99.90;;;;;;5093760;28;20521;-42
2023/06/22 07:10:03;;;;;;;11.77;7.27;;;26.90;99.90;;;;;;5092246;28;20561;-44
2023/06/22 07:12:28;;;;;;;7.07;6.33;;;26.80;56.50;;;;;;5094235;28;20422;-43
2023/06/22 07:14:57;;;;;;;6.67;6.07;;;26.60;53.70;;;;;;5076754;28;20460;-41
2023/06/22 07:17:23;;;;;;;10.20;7.13;;;26.40;62.60;;;;;;5076088;28;20235;-43
2023/06/22 07:19:48;;;;;;;8.40;7.60;;;26.20;59.80;;;;;;5092779;28;20532;-44
2023/06/22 07:22:14;;;;;;;7.97;6.40;;;26.10;80.30;;;;;;5092291;28;20459;-44
2023/06/22 07:24:40;;;;;;;9.37;6.37;;;26.10;99.90;;;;;;5092858;28;20176;-41
2023/06/22 07:27:06;;;;;;;9.67;7.13;;;26.20;57.80;;;;;;5091066;28;20180;-42
2023/06/22 07:29:33;;;;;;;11.13;8.17;;;26.20;62.50;;;;;;5091803;28;20207;-41
2023/06/22 07:32:00;;;;;;;9.20;6.57;;;26.20;53.20;;;;;;5090979;28;20469;-44
2023/06/22 07:34:26;;;;;;;8.10;7.23;;;26.30;51.90;;;;;;5091092;28;20433;-42
2023/06/22 07:36:51;;;;;;;9.00;7.23;;;26.30;54.90;;;;;;5088538;28;20422;-44
2023/06/22 07:39:17;;;;;;;8.43;7.73;;;26.40;40.20;;;;;;5088313;28;20242;-41
2023/06/22 07:41:43;;;;;;;7.03;6.33;;;26.50;27.00;;;;;;5089170;28;20226;-42
2023/06/22 07:44:09;;;;;;;9.10;7.57;;;26.50;20.90;;;;;;5073524;28;20187;-44
2023/06/22 07:46:34;;;;;;;9.87;7.17;;;26.50;26.80;;;;;;5075542;28;20321;-44
2023/06/22 07:49:01;;;;;;;8.07;6.80;;;26.70;12.30;;;;;;5090024;28;20229;-43
2023/06/22 07:51:26;;;;;;;9.07;8.17;;;26.80;4.40;;;;;;5090681;28;20290;-42
2023/06/22 07:53:52;;;;;;;12.00;7.73;;;26.90;1.00;;;;;;5092773;28;20438;-43
2023/06/22 07:56:20;;;;;;;8.50;7.53;;;26.80;1.00;;;;;;5071885;28;20504;-42
2023/06/22 07:58:46;;;;;;;10.33;6.40;;;26.80;1.00;;;;;;5073233;28;20209;-42
2023/06/22 08:01:13;;;;;;;7.73;6.93;;;26.90;1.00;;;;;;5071694;28;20411;-44
2023/06/22 08:03:39;;;;;;;7.90;6.50;;;27.10;1.00;;;;;;5075979;28;20412;-42
2023/06/22 08:06:05;;;;;;;8.90;7.20;;;27.30;1.00;;;;;;5074230;28;20480;-42
2023/06/22 08:08:31;;;;;;;8.40;6.83;;;27.40;1.00;;;;;;5072322;28;20438;-41
2023/06/22 08:10:57;;;;;;;7.70;6.70;;;27.40;1.00;;;;;;5072313;28;20427;-42
2023/06/22 08:13:23;;;;;;;8.20;7.40;;;27.70;1.00;;;;;;5071424;28;20283;-43
2023/06/22 08:15:49;;;;;;;7.80;7.00;;;27.70;1.00;;;;;;5069403;28;20817;-42
2023/06/22 08:18:15;;;;;;;12.60;8.53;;;27.90;1.00;;;;;;5071005;28;20181;-42
2023/06/22 08:20:40;;;;;;;9.53;7.67;;;28.20;1.00;;;;;;5071381;28;20930;-43
2023/06/22 08:23:06;;;;;;;8.70;7.80;;;28.20;1.00;;;;;;5071177;28;20435;-42
2023/06/22 08:25:34;;;;;;;8.30;7.50;;;28.10;1.00;;;;;;5071934;28;20177;-44
2023/06/22 08:28:00;;;;;;;9.47;7.23;;;28.10;1.00;;;;;;5072173;28;20165;-43
2023/06/22 08:30:25;;;;;;;11.57;8.37;;;28.40;1.00;;;;;;5072788;28;20423;-42
2023/06/22 08:32:51;;;;;;;11.70;8.77;;;28.60;1.00;;;;;;5055813;28;20427;-43
2023/06/22 08:35:17;;;;;;;8.00;7.20;;;28.20;1.00;;;;;;5074177;28;20177;-43
2023/06/22 08:37:43;;;;;;;10.10;8.83;;;28.30;1.00;;;;;;5068410;28;20184;-41
2023/06/22 08:40:10;;;;;;;8.40;7.50;;;28.30;1.00;;;;;;5072882;28;20274;-45
2023/06/22 08:42:38;;;;;;;9.37;8.40;;;28.30;1.00;;;;;;5070033;28;20228;-43
2023/06/22 08:45:04;;;;;;;11.90;8.40;;;28.30;1.00;;;;;;5072740;28;20439;-43
2023/06/22 08:47:30;;;;;;;10.03;8.73;;;28.30;1.00;;;;;;5071855;28;20782;-43
2023/06/22 08:49:56;;;;;;;8.67;7.87;;;28.10;1.00;;;;;;5076778;28;20419;-42
2023/06/22 08:52:23;;;;;;;8.87;7.97;;;28.20;1.00;;;;;;5078661;28;20382;-42
2023/06/22 08:54:49;;;;;;;9.30;8.33;;;28.20;1.00;;;;;;5077324;28;20625;-43
2023/06/22 08:57:15;;;;;;;11.43;8.60;;;28.30;1.00;;;;;;5061836;28;21000;-42
2023/06/22 08:59:41;;;;;;;8.57;7.77;;;28.20;1.00;;;;;;5076222;28;20285;-43
2023/06/22 09:02:07;;;;;;;8.73;7.87;;;28.40;1.00;;;;;;5075859;28;20896;-41
2023/06/22 09:04:34;;;;;;;9.33;8.43;;;28.20;1.00;;;;;;5076129;28;20431;-42
2023/06/22 09:07:01;;;;;;;9.83;8.93;;;28.40;1.00;;;;;;5076397;28;20856;-42
2023/06/22 09:09:26;;;;;;;11.93;8.77;;;28.30;1.00;;;;;;5076850;28;20826;-42
2023/06/22 09:11:52;;;;;;;8.40;7.50;;;28.10;1.00;;;;;;5075263;28;20516;-45
2023/06/22 09:14:18;;;;;;;13.63;8.30;;;28.20;1.00;;;;;;5075501;28;20467;-41
2023/06/22 09:16:44;;;;;;;12.23;7.90;;;28.60;1.00;;;;;;5075495;28;20165;-43
2023/06/22 09:19:10;;;;;;;11.50;7.67;;;29.10;1.00;;;;;;5075889;28;20717;-45
2023/06/22 09:21:36;;;;;;;10.10;8.40;;;29.30;1.00;;;;;;5077227;28;20216;-43
2023/06/22 09:24:02;;;;;;;16.63;8.63;;;29.70;1.00;;;;;;5075233;28;20366;-42
2023/06/22 09:26:27;;;;;;;14.30;8.20;;;30.00;1.00;;;;;;5073529;28;20427;-43
2023/06/22 09:28:57;;;;;;;10.87;8.23;;;30.20;1.00;;;;;;5076960;28;20812;-41
2023/06/22 09:31:26;;;;;;;10.20;8.90;;;30.50;1.00;;;;;;5076198;28;20257;-43
2023/06/22 09:33:55;;;;;;;9.60;8.60;;;30.80;1.00;;;;;;5073689;28;20388;-42
2023/06/22 09:36:26;;;;;;;8.60;7.70;;;30.90;1.00;;;;;;5075298;28;20446;-42
2023/06/22 09:38:55;;;;;;;10.20;8.13;;;31.40;1.00;;;;;;5075096;28;20452;-42
2023/06/22 09:41:21;;;;;;;9.40;8.50;;;31.00;1.00;;;;;;5072786;28;20689;-45
2023/06/22 09:43:50;;;;;;;9.80;8.80;;;31.60;1.00;;;;;;5072468;28;20866;-41
2023/06/22 09:46:16;;;;;;;16.20;8.90;;;31.80;1.00;;;;;;5074125;28;20433;-42
2023/06/22 09:48:42;;;;;;;10.20;8.93;;;32.10;1.00;;;;;;5072887;28;20583;-43
2023/06/22 09:51:07;;;;;;;10.33;8.60;;;32.30;1.00;;;;;;5073467;28;20406;-43
2023/06/22 09:53:34;;;;;;;9.83;8.10;;;32.60;1.00;;;;;;5074509;28;20234;-42
2023/06/22 09:56:01;;;;;;;9.43;8.60;;;32.60;1.00;;;;;;5081145;28;20490;-42
2023/06/22 09:58:27;;;;;;;9.83;8.27;;;32.70;1.00;;;;;;5094957;28;20674;-44
2023/06/22 10:00:54;;;;;;;10.23;8.83;;;32.90;1.00;;;;;;5095142;28;20458;-43
2023/06/22 10:03:20;;;;;;;11.00;7.37;;;32.80;1.00;;;;;;5096380;28;20168;-44
2023/06/22 10:05:46;;;;;;;8.87;8.07;;;32.50;1.00;;;;;;5096447;28;20450;-43
2023/06/22 10:08:11;;;;;;;11.87;9.33;;;32.20;1.00;;;;;;5076713;28;20472;-43
2023/06/22 10:10:37;;;;;;;9.73;8.30;;;31.90;1.00;;;;;;5095165;28;20251;-43
2023/06/22 10:13:11;;;;;;;9.67;8.53;;;31.70;1.00;;;;;;5095744;28;20176;-43
2023/06/22 10:15:38;;;;;;;10.93;8.63;;;31.80;1.00;;;;;;5097320;28;20195;-46
2023/06/22 10:18:04;;;;;;;13.90;9.23;;;31.90;1.00;;;;;;5096430;28;20507;-42
2023/06/22 10:20:30;;;;;;;12.07;10.10;;;32.30;1.00;;;;;;5058734;28;20683;-42
2023/06/22 10:22:55;;;;;;;9.77;8.87;;;32.70;1.00;;;;;;5092860;28;20196;-42
2023/06/22 10:25:21;;;;;;;9.20;8.30;;;32.80;1.00;;;;;;5074410;28;20188;-44
2023/06/22 10:27:47;;;;;;;8.80;7.90;;;32.90;1.00;;;;;;5091014;28;20168;-44
2023/06/22 10:30:13;;;;;;;15.03;8.47;;;33.20;1.00;;;;;;5075490;28;20687;-44
2023/06/22 10:32:40;;;;;;;9.27;8.30;;;33.50;1.00;;;;;;5075311;28;20177;-46
2023/06/22 10:35:06;;;;;;;12.23;8.30;;;34.00;1.00;;;;;;5073513;28;20718;-42
2023/06/22 10:37:31;;;;;;;12.50;8.77;;;34.60;1.00;;;;;;5093635;28;20940;-44
2023/06/22 10:39:57;;;;;;;9.33;8.30;;;35.10;1.00;;;;;;5094459;28;20459;-42
2023/06/22 10:42:23;;;;;;;11.20;8.80;;;34.90;1.00;;;;;;5095673;28;20181;-43
2023/06/22 10:44:48;;;;;;;9.00;8.07;;;34.70;1.00;;;;;;5092654;28;20176;-44
2023/06/22 10:47:14;;;;;;;9.90;8.87;;;34.60;1.00;;;;;;5093356;28;20198;-44
2023/06/22 10:49:40;;;;;;;9.40;8.53;;;34.50;1.00;;;;;;5093638;28;20181;-42
2023/06/22 10:52:09;;;;;;;12.47;8.57;;;34.30;1.00;;;;;;5094265;28;20168;-44
2023/06/22 10:54:35;;;;;;;13.10;8.10;;;34.10;1.00;;;;;;5093453;28;20505;-44
2023/06/22 10:57:04;;;;;;;10.17;8.60;;;34.00;1.00;;;;;;5075554;28;20580;-43
2023/06/22 10:59:30;;;;;;;9.90;8.80;;;33.70;1.00;;;;;;5095784;28;20531;-42
2023/06/22 11:01:56;;;;;;;13.43;9.00;;;33.50;1.00;;;;;;5077148;28;20431;-42
2023/06/22 11:04:22;;;;;;;11.47;9.07;;;33.30;1.00;;;;;;5077164;28;20181;-43
2023/06/22 11:06:48;;;;;;;9.83;8.33;;;33.20;1.00;;;;;;5075376;28;20432;-43
2023/06/22 11:09:18;;;;;;;9.63;8.73;;;33.10;1.00;;;;;;5093839;28;20253;-43
2023/06/22 11:11:44;;;;;;;9.20;7.90;;;33.10;1.00;;;;;;5091994;28;20783;-43
2023/06/22 11:14:10;;;;;;;11.40;8.57;;;33.10;1.00;;;;;;5091520;28;20470;-43
2023/06/22 11:16:36;;;;;;;9.80;8.50;;;33.00;1.00;;;;;;5091274;28;20617;-43
2023/06/22 11:19:03;;;;;;;10.77;9.67;;;32.60;1.00;;;;;;5090536;28;20204;-42
2023/06/22 11:21:28;;;;;;;10.00;8.67;;;32.30;1.00;;;;;;5089622;28;20600;-44
2023/06/22 11:23:54;;;;;;;8.90;8.00;;;32.00;1.00;;;;;;5091889;28;20441;-43
2023/06/22 11:26:21;;;;;;;8.97;8.07;;;32.10;1.00;;;;;;5092031;28;20168;-44
2023/06/22 11:28:46;;;;;;;18.03;10.00;;;32.10;1.00;;;;;;5093158;28;20449;-44
2023/06/22 11:31:12;;;;;;;11.00;8.80;;;32.30;1.00;;;;;;5090754;28;20526;-44
2023/06/22 11:33:38;;;;;;;12.70;9.27;;;32.40;1.00;;;;;;5073194;28;20286;-41
2023/06/22 11:36:03;;;;;;;10.13;7.90;;;32.40;1.00;;;;;;5092144;28;20506;-43
2023/06/22 11:38:30;;;;;;;13.20;10.00;;;32.30;1.00;;;;;;5058534;28;20212;-42
2023/06/22 11:40:57;;;;;;;9.70;8.30;;;32.50;1.00;;;;;;5092972;28;20306;-41
2023/06/22 11:43:23;;;;;;;11.77;8.93;;;32.90;1.00;;;;;;5089494;28;21030;-43
2023/06/22 11:45:48;;;;;;;10.37;8.27;;;33.20;1.00;;;;;;5070798;28;20521;-43
2023/06/22 11:48:14;;;;;;;10.70;8.37;;;33.00;1.00;;;;;;5091084;28;20191;-42
2023/06/22 11:50:40;;;;;;;11.50;8.90;;;32.90;1.00;;;;;;5091699;28;20190;-43
2023/06/22 11:53:05;;;;;;;9.57;8.00;;;32.50;1.00;;;;;;5091636;28;20270;-42
2023/06/22 11:55:31;;;;;;;11.10;8.90;;;32.30;1.00;;;;;;5093801;28;20188;-44
2023/06/22 11:58:00;;;;;;;12.37;9.23;;;32.00;1.00;;;;;;5092091;28;20215;-44
2023/06/22 12:00:26;;;;;;;10.70;9.30;;;31.70;1.00;;;;;;5092947;28;20204;-44
2023/06/22 12:02:52;;;;;;;9.90;8.87;;;31.60;1.00;;;;;;5076426;28;20478;-44
2023/06/22 12:05:21;;;;;;;12.10;9.90;;;31.40;1.00;;;;;;5089975;28;20285;-42
2023/06/22 12:07:46;;;;;;;11.90;9.37;;;31.20;1.00;;;;;;5090556;28;20534;-42
2023/06/22 12:10:12;;;;;;;11.77;9.30;;;30.90;1.00;;;;;;5091887;28;20422;-41
2023/06/22 12:12:38;;;;;;;10.50;9.37;;;30.90;1.00;;;;;;5074303;28;20619;-42
2023/06/22 12:15:05;;;;;;;12.27;10.23;;;30.80;1.00;;;;;;5093068;28;20371;-42
2023/06/22 12:17:31;;;;;;;11.33;10.23;;;30.70;1.00;;;;;;5090915;28;20516;-43
2023/06/22 12:19:56;;;;;;;9.90;8.90;;;30.90;1.00;;;;;;5090509;28;20448;-43
2023/06/22 12:22:22;;;;;;;11.53;8.40;;;31.10;1.00;;;;;;5090400;28;20191;-43
2023/06/22 12:24:48;;;;;;;11.93;9.70;;;31.30;1.00;;;;;;5090316;28;20222;-42
2023/06/22 12:27:16;;;;;;;10.90;9.80;;;31.20;1.00;;;;;;5089632;28;20169;-43
2023/06/22 12:29:41;;;;;;;13.40;10.60;;;31.10;1.00;;;;;;5090225;28;20275;-44
2023/06/22 12:32:12;;;;;;;10.90;9.80;;;30.80;1.00;;;;;;5087392;28;20918;-42
2023/06/22 12:34:38;;;;;;;10.17;9.17;;;30.50;1.00;;;;;;5090893;28;20204;-41
2023/06/22 12:37:05;;;;;;;12.53;10.33;;;30.40;1.00;;;;;;5091597;28;20505;-44
2023/06/22 12:39:31;;;;;;;13.93;9.67;;;30.30;1.00;;;;;;5090501;28;20437;-42
2023/06/22 12:41:57;;;;;;;15.00;10.40;;;30.40;1.00;;;;;;5088346;28;20688;-43